Time;durP1;ratioP1;P1;durP2;ratioP2;P2;SDS_P1;SDS_P2;PMS_P1;PMS_P2;Temp;Humidity;BMP_temperature;BMP_pressure;BME280_temperature;BME280_humidity;BME280_pressure;Samples;Min_cycle;Max_cycle;Signal;HPM_P1;HPM_P2
2023/08/19 00:03:59;;;;;;;9.20;8.30;;;27.10;68.00;;;;;;221729;1259;22665;-47
2023/08/19 00:09:04;;;;;;;8.60;7.70;;;27.10;68.00;;;;;;222244;1266;25417;-52
2023/08/19 00:14:07;;;;;;;9.00;8.10;;;27.10;68.00;;;;;;222096;1255;22517;-50
2023/08/19 00:19:11;;;;;;;8.90;8.30;;;27.00;67.90;;;;;;222219;1257;22616;-48
2023/08/19 00:24:14;;;;;;;9.50;8.80;;;27.00;68.40;;;;;;222213;1255;24263;-50
2023/08/19 00:29:18;;;;;;;8.60;8.00;;;27.00;68.00;;;;;;221875;1255;24362;-48
2023/08/19 00:34:21;;;;;;;7.80;7.30;;;27.10;68.00;;;;;;221759;1265;22626;-48
2023/08/19 00:39:23;;;;;;;8.50;7.90;;;27.00;68.00;;;;;;222181;1255;25233;-50
2023/08/19 00:44:27;;;;;;;8.90;8.20;;;27.00;67.90;;;;;;221935;1263;22539;-46
2023/08/19 00:49:30;;;;;;;9.10;8.40;;;27.00;68.00;;;;;;221987;1256;22651;-50
2023/08/19 00:54:33;;;;;;;7.90;7.40;;;27.00;68.00;;;;;;221906;1256;22654;-50
2023/08/19 00:59:36;;;;;;;9.00;8.20;;;27.00;68.00;;;;;;222144;1270;22527;-50
2023/08/19 01:04:39;;;;;;;9.40;8.80;;;27.00;68.00;;;;;;221966;1265;24233;-48
2023/08/19 01:10:11;;;;;;;9.40;8.70;;;27.00;68.00;;;;;;221883;1266;22521;-48
2023/08/19 01:15:26;;;;;;;8.30;7.50;;;26.90;68.30;;;;;;222050;1253;23929;-50
2023/08/19 01:20:31;;;;;;;9.70;8.70;;;27.00;67.90;;;;;;221853;1256;22546;-49
2023/08/19 01:25:34;;;;;;;8.80;8.00;;;27.00;67.90;;;;;;221931;1255;24382;-49
2023/08/19 01:30:37;;;;;;;8.60;7.80;;;26.90;67.80;;;;;;222083;1256;22766;-49
2023/08/19 01:35:48;;;;;;;9.40;8.40;;;26.90;67.80;;;;;;222031;1268;22667;-50
2023/08/19 01:40:52;;;;;;;;;;;26.90;67.80;;;;;;221760;1259;24239;-49
2023/08/19 01:45:55;;;;;;;9.00;8.10;;;26.90;67.90;;;;;;222053;1271;22792;-49
2023/08/19 01:50:58;;;;;;;8.90;8.20;;;26.90;67.90;;;;;;221803;1256;24245;-48
2023/08/19 01:56:00;;;;;;;9.60;8.70;;;26.90;67.90;;;;;;221921;1268;24306;-46
2023/08/19 02:01:04;;;;;;;9.40;8.50;;;26.90;67.90;;;;;;221902;1265;22563;-48
2023/08/19 02:06:07;;;;;;;9.10;8.40;;;26.90;68.20;;;;;;221577;1256;24225;-46
2023/08/19 02:11:10;;;;;;;8.80;8.20;;;26.90;67.80;;;;;;221725;1269;22619;-50
2023/08/19 02:16:13;;;;;;;9.00;8.50;;;26.90;67.80;;;;;;221925;1261;25851;-48
2023/08/19 02:21:16;;;;;;;8.40;7.90;;;26.90;67.80;;;;;;221872;1264;22538;-50
2023/08/19 02:26:19;;;;;;;9.30;8.50;;;26.80;67.70;;;;;;221902;1267;23896;-48
2023/08/19 02:31:22;;;;;;;9.40;8.70;;;26.80;67.70;;;;;;222035;1270;23278;-50
2023/08/19 02:36:25;;;;;;;9.60;8.80;;;26.80;67.60;;;;;;221902;1268;24276;-49
2023/08/19 02:41:28;;;;;;;9.40;8.60;;;26.80;67.60;;;;;;221839;1265;22529;-50
2023/08/19 02:46:31;;;;;;;8.70;7.90;;;26.80;67.60;;;;;;221828;1269;22536;-48
2023/08/19 02:51:34;;;;;;;9.20;8.50;;;26.80;67.60;;;;;;221633;1266;22670;-48
2023/08/19 02:56:37;;;;;;;9.40;8.80;;;26.80;67.50;;;;;;221804;1268;22686;-49
2023/08/19 03:01:40;;;;;;;8.40;7.90;;;26.80;67.50;;;;;;221720;1257;24036;-48
2023/08/19 03:06:43;;;;;;;8.10;7.60;;;26.80;67.50;;;;;;222065;1260;22774;-45
2023/08/19 03:11:45;;;;;;;9.20;8.40;;;26.70;67.30;;;;;;222048;1271;22768;-49
2023/08/19 03:16:49;;;;;;;8.80;8.30;;;26.80;67.30;;;;;;221901;1264;22536;-49
2023/08/19 03:21:54;;;;;;;9.40;8.70;;;26.80;67.20;;;;;;221776;1263;25868;-46
2023/08/19 03:26:57;;;;;;;8.60;7.90;;;26.70;67.20;;;;;;221494;1268;220148;-49
2023/08/19 03:32:02;;;;;;;8.80;8.20;;;26.70;67.20;;;;;;221929;1265;22570;-48
2023/08/19 03:37:05;;;;;;;8.70;8.10;;;26.70;67.20;;;;;;222091;1264;22789;-48
2023/08/19 03:42:08;;;;;;;9.20;8.40;;;26.70;67.10;;;;;;221527;1268;22517;-51
2023/08/19 03:47:12;;;;;;;8.90;8.30;;;26.70;67.10;;;;;;221891;1271;22592;-47
2023/08/19 03:52:16;;;;;;;9.60;8.90;;;26.70;67.10;;;;;;221962;1271;24225;-49
2023/08/19 03:57:19;;;;;;;9.60;8.90;;;26.60;67.00;;;;;;221928;1259;22523;-47
2023/08/19 04:02:22;;;;;;;9.50;8.70;;;26.60;67.00;;;;;;221891;1269;23929;-50
2023/08/19 04:07:25;;;;;;;9.50;8.70;;;26.70;67.10;;;;;;221798;1267;22546;-47
2023/08/19 04:12:28;;;;;;;9.00;8.30;;;26.60;67.30;;;;;;221517;1264;22598;-47
2023/08/19 04:17:35;;;;;;;9.10;8.30;;;26.60;66.90;;;;;;221572;1263;22695;-49
2023/08/19 04:22:38;;;;;;;9.40;8.50;;;26.60;67.30;;;;;;221932;1268;25341;-50
2023/08/19 04:27:41;;;;;;;10.50;9.70;;;26.60;66.90;;;;;;221878;1261;22777;-49
2023/08/19 04:32:44;;;;;;;9.40;8.60;;;26.60;66.90;;;;;;221634;1269;22765;-47
2023/08/19 04:37:48;;;;;;;9.90;9.10;;;26.60;66.90;;;;;;221654;1262;22513;-50
2023/08/19 04:42:54;;;;;;;9.40;8.70;;;26.60;66.90;;;;;;221816;1271;22513;-52
2023/08/19 04:47:57;;;;;;;9.50;8.90;;;26.60;67.20;;;;;;221684;1260;22525;-50
2023/08/19 04:53:01;;;;;;;9.10;8.30;;;26.60;66.90;;;;;;221816;1271;22650;-49
2023/08/19 04:58:05;;;;;;;8.90;8.20;;;26.60;66.90;;;;;;221774;1261;22520;-47
2023/08/19 05:03:07;;;;;;;9.40;8.50;;;26.60;67.30;;;;;;221704;1269;22618;-48
2023/08/19 05:08:11;;;;;;;9.50;8.80;;;26.70;66.90;;;;;;221791;1268;22633;-52
2023/08/19 05:13:14;;;;;;;10.10;9.30;;;26.60;66.80;;;;;;221918;1268;23893;-48
2023/08/19 05:18:18;;;;;;;10.00;9.20;;;26.70;66.90;;;;;;221987;1268;24243;-52
2023/08/19 05:23:21;;;;;;;10.50;9.80;;;26.70;67.00;;;;;;221695;1268;23891;-48
2023/08/19 05:28:26;;;;;;;9.90;9.10;;;26.70;67.00;;;;;;221646;1271;24079;-47
2023/08/19 05:33:29;;;;;;;10.50;9.70;;;26.70;66.90;;;;;;221790;1271;23926;-49
2023/08/19 05:38:32;;;;;;;9.60;8.90;;;26.70;67.10;;;;;;221744;1265;22660;-47
2023/08/19 05:43:35;;;;;;;10.10;9.40;;;26.70;67.10;;;;;;221998;1268;22572;-49
2023/08/19 05:48:38;;;;;;;11.20;10.30;;;26.70;67.60;;;;;;221834;1263;22510;-49
2023/08/19 05:53:41;;;;;;;10.10;9.30;;;26.70;67.20;;;;;;221754;1267;22666;-49
2023/08/19 05:58:46;;;;;;;10.20;9.40;;;26.70;67.20;;;;;;221674;1271;22963;-53
2023/08/19 06:03:49;;;;;;;10.40;9.80;;;26.70;67.30;;;;;;221791;1266;22541;-48
2023/08/19 06:08:51;;;;;;;10.40;9.60;;;26.80;66.90;;;;;;221894;1270;22624;-51
2023/08/19 06:13:54;;;;;;;9.50;8.60;;;26.80;67.20;;;;;;221782;1263;23897;-54
2023/08/19 06:18:57;;;;;;;10.60;9.70;;;26.90;67.10;;;;;;221877;1268;22863;-50
2023/08/19 06:24:00;;;;;;;9.40;8.70;;;26.90;67.10;;;;;;221796;1270;22519;-46
2023/08/19 06:29:03;;;;;;;10.00;9.20;;;26.90;67.30;;;;;;221885;1266;22531;-50
2023/08/19 06:34:07;;;;;;;9.70;9.00;;;26.90;66.90;;;;;;221964;1255;22533;-47
2023/08/19 06:39:25;;;;;;;9.60;9.00;;;26.90;66.80;;;;;;221875;1265;25326;-48
2023/08/19 06:44:33;;;;;;;9.60;8.90;;;26.90;66.70;;;;;;221962;1271;25300;-47
2023/08/19 06:49:37;;;;;;;9.20;8.50;;;27.00;67.00;;;;;;221850;1271;25503;-51
2023/08/19 06:54:40;;;;;;;9.30;8.60;;;27.00;66.70;;;;;;221815;1268;25393;-48
2023/08/19 06:59:47;;;;;;;10.30;9.30;;;27.00;67.10;;;;;;222082;1267;22540;-51
2023/08/19 07:04:53;;;;;;;9.40;8.60;;;27.00;66.80;;;;;;221650;1265;25485;-47
2023/08/19 07:09:56;;;;;;;10.00;9.30;;;27.00;66.80;;;;;;221950;1266;22635;-51
2023/08/19 07:14:59;;;;;;;9.90;9.10;;;27.00;66.90;;;;;;221760;1268;22579;-49
2023/08/19 07:20:05;;;;;;;9.60;8.90;;;27.00;67.40;;;;;;221728;1264;22605;-46
2023/08/19 07:25:09;;;;;;;9.30;8.60;;;27.00;67.00;;;;;;221699;1271;26579;-47
2023/08/19 07:30:13;;;;;;;10.00;9.30;;;27.00;66.90;;;;;;221973;1269;22797;-50
2023/08/19 07:35:15;;;;;;;10.20;9.30;;;27.10;66.90;;;;;;222063;1270;24207;-49
2023/08/19 07:40:19;;;;;;;10.50;9.60;;;27.10;67.00;;;;;;221943;1268;22521;-51
2023/08/19 07:45:21;;;;;;;9.40;8.70;;;27.10;66.80;;;;;;222019;1264;22563;-49
2023/08/19 07:50:24;;;;;;;10.00;9.20;;;27.10;67.10;;;;;;221938;1270;22597;-51
2023/08/19 07:55:27;;;;;;;9.90;9.20;;;27.20;67.00;;;;;;221866;1261;23593;-48
2023/08/19 08:00:31;;;;;;;9.90;9.20;;;27.20;66.90;;;;;;221812;1264;22972;-49
2023/08/19 08:05:34;;;;;;;9.30;8.60;;;27.20;67.10;;;;;;222045;1271;22514;-47
2023/08/19 08:10:37;;;;;;;9.80;9.10;;;27.30;67.00;;;;;;221996;1270;22539;-48
2023/08/19 08:15:40;;;;;;;9.40;8.80;;;27.30;67.10;;;;;;221597;1264;22633;-48
2023/08/19 08:20:44;;;;;;;9.60;8.90;;;27.30;67.10;;;;;;221865;1269;22551;-48
2023/08/19 08:25:47;;;;;;;9.70;9.10;;;27.40;67.60;;;;;;221868;1266;22529;-47
2023/08/19 08:30:52;;;;;;;10.50;9.70;;;27.40;67.10;;;;;;221752;1263;22563;-50
2023/08/19 08:35:55;;;;;;;10.20;9.50;;;27.40;67.00;;;;;;221683;1265;22642;-49
2023/08/19 08:41:03;;;;;;;9.10;8.50;;;27.40;67.00;;;;;;221718;1268;22542;-47
2023/08/19 08:46:06;;;;;;;9.20;8.50;;;27.50;67.00;;;;;;221854;1271;22522;-49
2023/08/19 08:51:09;;;;;;;9.80;9.10;;;27.50;67.40;;;;;;221968;1266;22722;-48
2023/08/19 08:56:13;;;;;;;9.70;9.00;;;27.60;67.20;;;;;;221897;1265;26644;-47
2023/08/19 09:01:17;;;;;;;9.70;9.00;;;27.60;66.50;;;;;;222122;1266;22780;-47
2023/08/19 09:06:20;;;;;;;11.30;10.30;;;27.70;66.60;;;;;;222065;1261;25791;-46
2023/08/19 09:11:27;;;;;;;10.30;9.60;;;27.70;66.40;;;;;;221870;1269;22556;-49
2023/08/19 09:16:30;;;;;;;9.80;8.90;;;27.70;66.40;;;;;;222028;1271;22579;-49
2023/08/19 09:21:34;;;;;;;8.50;7.90;;;27.80;66.80;;;;;;221800;1271;22524;-50
2023/08/19 09:26:37;;;;;;;9.20;8.50;;;27.80;66.40;;;;;;221962;1264;25276;-49
2023/08/19 09:31:40;;;;;;;9.10;8.50;;;27.80;66.30;;;;;;221912;1271;22658;-48
2023/08/19 09:36:43;;;;;;;9.00;8.30;;;27.90;66.40;;;;;;221817;1271;22611;-51
2023/08/19 09:41:46;;;;;;;9.60;8.80;;;27.90;66.40;;;;;;221741;1271;23918;-48
2023/08/19 09:46:49;;;;;;;9.40;8.70;;;27.90;66.30;;;;;;222012;1263;24222;-51
2023/08/19 09:51:56;;;;;;;10.20;9.50;;;28.00;66.50;;;;;;221845;1270;25297;-51
2023/08/19 09:56:59;;;;;;;9.70;8.90;;;28.00;66.40;;;;;;221892;1271;22551;-47
2023/08/19 10:02:02;;;;;;;10.10;9.30;;;28.00;66.30;;;;;;221694;1264;22525;-50
2023/08/19 10:07:09;;;;;;;10.10;9.40;;;28.10;66.40;;;;;;221985;1264;22757;-50
2023/08/19 10:12:15;;;;;;;9.80;9.20;;;28.10;66.40;;;;;;221960;1271;24256;-51
2023/08/19 10:17:20;;;;;;;10.00;9.30;;;28.10;66.30;;;;;;222056;1267;25310;-48
2023/08/19 10:22:23;;;;;;;10.10;9.40;;;28.20;66.40;;;;;;221767;1264;22526;-53
2023/08/19 10:27:26;;;;;;;8.80;8.20;;;28.20;66.70;;;;;;222147;1267;22609;-51
2023/08/19 10:32:33;;;;;;;9.10;8.50;;;28.20;66.30;;;;;;222206;1257;22550;-52
2023/08/19 10:37:41;;;;;;;10.40;9.70;;;28.30;66.20;;;;;;221915;1266;22526;-50
2023/08/19 10:42:59;;;;;;;10.70;9.90;;;28.40;66.00;;;;;;221837;1264;22667;-51
2023/08/19 10:48:02;;;;;;;9.60;8.90;;;28.40;65.90;;;;;;221838;1255;22522;-46
2023/08/19 10:53:07;;;;;;;10.00;9.40;;;28.40;65.70;;;;;;221772;1271;22541;-51
2023/08/19 10:58:11;;;;;;;9.50;8.80;;;28.50;65.70;;;;;;221930;1271;22636;-49
2023/08/19 11:03:15;;;;;;;9.80;9.10;;;28.50;65.90;;;;;;221969;1269;22777;-52
2023/08/19 11:08:18;;;;;;;9.40;8.80;;;28.50;65.50;;;;;;222041;1251;24242;-50
2023/08/19 11:13:22;;;;;;;9.30;8.60;;;28.60;65.50;;;;;;221708;1270;25231;-49
2023/08/19 11:18:25;;;;;;;9.50;8.90;;;28.60;65.50;;;;;;221691;1268;22537;-54
2023/08/19 11:23:28;;;;;;;8.90;8.30;;;28.60;65.30;;;;;;221783;1264;22523;-45
2023/08/19 11:28:35;;;;;;;8.80;8.20;;;28.70;65.20;;;;;;221914;1264;24170;-49
2023/08/19 11:33:39;;;;;;;9.40;8.80;;;28.70;65.20;;;;;;221841;1264;22648;-51
2023/08/19 11:38:44;;;;;;;9.20;8.50;;;28.80;65.30;;;;;;222117;1264;23930;-52
2023/08/19 11:43:47;;;;;;;8.60;8.10;;;28.80;65.10;;;;;;221570;1264;25409;-51
2023/08/19 11:48:50;;;;;;;9.20;8.60;;;28.80;65.00;;;;;;221815;1270;22523;-50
2023/08/19 11:53:54;;;;;;;8.90;8.40;;;28.80;65.00;;;;;;222044;1267;22524;-49
2023/08/19 11:58:57;;;;;;;9.50;8.90;;;28.80;65.00;;;;;;222071;1267;25395;-50
2023/08/19 12:04:00;;;;;;;9.20;8.60;;;28.80;64.80;;;;;;222044;1254;22639;-51
2023/08/19 12:09:04;;;;;;;10.20;9.50;;;28.90;64.80;;;;;;221872;1271;22623;-51
2023/08/19 12:14:07;;;;;;;9.50;8.80;;;28.90;64.40;;;;;;221916;1271;24574;-50
2023/08/19 12:19:10;;;;;;;9.10;8.40;;;29.00;64.60;;;;;;221882;1264;22657;-48
2023/08/19 12:24:13;;;;;;;9.00;8.40;;;29.00;64.30;;;;;;221885;1255;22640;-49
2023/08/19 12:29:17;;;;;;;9.20;8.50;;;29.00;64.20;;;;;;221833;1267;22520;-48
2023/08/19 12:34:20;;;;;;;9.50;8.90;;;29.10;64.10;;;;;;221540;1260;24231;-51
2023/08/19 12:39:23;;;;;;;9.60;8.90;;;29.20;63.90;;;;;;221970;1271;22521;-48
2023/08/19 12:44:26;;;;;;;8.90;8.30;;;29.10;64.00;;;;;;222097;1266;24209;-50
2023/08/19 12:49:29;;;;;;;8.70;8.10;;;29.20;63.80;;;;;;221810;1257;22615;-50
2023/08/19 12:54:32;;;;;;;9.20;8.50;;;29.20;63.50;;;;;;221844;1264;24078;-51
2023/08/19 12:59:34;;;;;;;9.20;8.50;;;29.20;63.50;;;;;;221909;1267;22541;-49
2023/08/19 13:04:37;;;;;;;9.00;8.30;;;29.30;63.40;;;;;;221847;1265;22657;-49
2023/08/19 13:09:40;;;;;;;8.60;8.00;;;29.40;63.30;;;;;;222194;1257;23487;-52
2023/08/19 13:14:43;;;;;;;10.10;9.10;;;29.40;63.40;;;;;;221626;1261;22514;-47
2023/08/19 13:19:46;;;;;;;9.30;8.50;;;29.40;63.30;;;;;;221875;1267;22723;-50
2023/08/19 13:24:52;;;;;;;8.90;8.20;;;29.40;63.40;;;;;;221936;1257;22737;-51
2023/08/19 13:29:55;;;;;;;10.00;9.30;;;29.40;63.30;;;;;;221779;1255;22585;-50
2023/08/19 13:34:58;;;;;;;9.60;9.00;;;29.40;63.30;;;;;;221894;1264;23950;-49
2023/08/19 13:40:04;;;;;;;8.70;8.10;;;29.40;63.30;;;;;;222229;1264;23603;-47
2023/08/19 13:45:08;;;;;;;9.00;8.40;;;29.40;63.30;;;;;;221926;1267;22534;-50
2023/08/19 13:50:10;;;;;;;9.30;8.70;;;29.40;63.30;;;;;;221801;1270;22715;-49
2023/08/19 13:55:14;;;;;;;9.30;8.50;;;29.40;63.30;;;;;;221730;1267;22751;-54
2023/08/19 14:00:18;;;;;;;8.70;8.10;;;29.40;63.30;;;;;;222068;1267;23922;-49
2023/08/19 14:05:21;;;;;;;8.50;7.90;;;29.40;63.30;;;;;;221882;1255;22517;-49
2023/08/19 14:10:24;;;;;;;7.90;7.30;;;29.40;63.80;;;;;;221909;1264;22533;-48
2023/08/19 14:15:27;;;;;;;8.80;8.20;;;29.40;63.20;;;;;;222038;1256;22504;-47
2023/08/19 14:20:30;;;;;;;8.80;8.10;;;29.40;63.10;;;;;;221710;1264;22557;-46
2023/08/19 14:25:33;;;;;;;9.00;8.40;;;29.40;63.70;;;;;;221879;1270;22521;-47
2023/08/19 14:30:37;;;;;;;9.30;8.60;;;29.40;63.20;;;;;;222054;1255;25403;-50
2023/08/19 14:35:45;;;;;;;9.10;8.50;;;29.30;63.10;;;;;;221977;1265;24875;-48
2023/08/19 14:40:47;;;;;;;8.70;8.10;;;29.30;63.40;;;;;;221776;1267;22623;-50
2023/08/19 14:45:51;;;;;;;8.80;8.20;;;29.30;63.20;;;;;;221622;1265;22557;-47
2023/08/19 14:50:53;;;;;;;8.60;8.00;;;29.30;63.40;;;;;;221459;1255;22815;-48
2023/08/19 14:55:56;;;;;;;9.10;8.40;;;29.30;63.20;;;;;;221605;1267;22537;-52
2023/08/19 15:00:59;;;;;;;8.70;8.10;;;29.30;63.20;;;;;;221780;1266;22713;-53
2023/08/19 15:06:03;;;;;;;9.00;8.20;;;29.30;63.20;;;;;;222000;1265;24032;-50
2023/08/19 15:11:05;;;;;;;8.80;8.10;;;29.30;63.20;;;;;;221943;1260;22576;-48
2023/08/19 15:16:08;;;;;;;8.50;8.00;;;29.30;63.30;;;;;;221749;1270;24330;-52
2023/08/19 15:21:11;;;;;;;9.30;8.70;;;29.30;63.30;;;;;;221864;1266;22642;-52
2023/08/19 15:26:14;;;;;;;9.30;8.60;;;29.30;63.50;;;;;;221534;1263;193608;-48
2023/08/19 15:31:21;;;;;;;8.70;8.00;;;29.30;63.50;;;;;;221762;1270;22517;-51
2023/08/19 15:36:24;;;;;;;8.80;8.20;;;29.20;64.10;;;;;;221889;1265;24231;-48
2023/08/19 15:41:27;;;;;;;9.10;8.50;;;29.30;63.50;;;;;;221960;1264;22542;-47
2023/08/19 15:46:37;;;;;;;9.30;8.70;;;29.20;63.60;;;;;;221551;1259;22661;-53
2023/08/19 15:51:39;;;;;;;9.20;8.60;;;29.20;63.70;;;;;;221767;1266;26833;-49
2023/08/19 15:56:46;;;;;;;9.20;8.60;;;29.20;63.70;;;;;;221691;1267;22537;-51
2023/08/19 16:01:49;;;;;;;7.90;7.40;;;29.20;63.80;;;;;;221906;1264;22534;-50
2023/08/19 16:06:52;;;;;;;8.60;8.10;;;29.20;63.90;;;;;;221668;1267;22587;-51
2023/08/19 16:11:55;;;;;;;8.50;7.90;;;29.20;63.80;;;;;;221828;1264;22562;-49
2023/08/19 16:16:59;;;;;;;8.40;7.90;;;29.20;63.80;;;;;;222043;1270;22523;-51
2023/08/19 16:22:03;;;;;;;8.90;8.30;;;29.20;63.80;;;;;;222059;1267;24260;-50
2023/08/19 16:27:06;;;;;;;8.50;7.90;;;29.10;63.90;;;;;;221816;1249;25483;-49
2023/08/19 16:32:09;;;;;;;9.10;8.50;;;29.10;63.80;;;;;;221951;1266;24302;-49
2023/08/19 16:37:12;;;;;;;8.60;8.10;;;29.10;63.80;;;;;;221933;1270;22639;-50
2023/08/19 16:42:21;;;;;;;8.60;8.10;;;29.10;63.60;;;;;;221764;1264;22543;-50
2023/08/19 16:47:24;;;;;;;8.90;8.30;;;29.00;63.40;;;;;;222149;1265;22526;-49
2023/08/19 16:52:27;;;;;;;9.10;8.30;;;29.10;63.50;;;;;;222024;1263;22715;-48
2023/08/19 16:57:31;;;;;;;9.00;8.30;;;29.10;62.90;;;;;;222073;1269;25080;-49
2023/08/19 17:02:35;;;;;;;9.30;8.60;;;29.10;63.00;;;;;;222013;1255;24241;-54
2023/08/19 17:07:38;;;;;;;8.50;8.00;;;29.00;63.00;;;;;;221886;1258;22518;-48
2023/08/19 17:12:41;;;;;;;8.00;7.50;;;29.00;62.90;;;;;;221769;1271;22565;-52
2023/08/19 17:17:43;;;;;;;8.90;8.30;;;29.00;62.90;;;;;;221648;1270;24354;-53
2023/08/19 17:22:48;;;;;;;8.10;7.60;;;29.00;62.80;;;;;;221666;1268;22602;-50
2023/08/19 17:27:50;;;;;;;7.90;7.30;;;29.00;62.70;;;;;;221749;1268;22536;-49
2023/08/19 17:32:53;;;;;;;7.90;7.40;;;28.90;62.80;;;;;;221794;1266;22615;-51
2023/08/19 17:37:56;;;;;;;8.40;7.80;;;28.90;62.70;;;;;;222069;1264;22650;-49
2023/08/19 17:42:59;;;;;;;8.20;7.60;;;28.90;63.10;;;;;;221741;1265;23894;-52
2023/08/19 17:48:02;;;;;;;8.40;7.80;;;28.90;62.70;;;;;;222064;1261;22663;-51
2023/08/19 17:53:05;;;;;;;8.10;7.40;;;28.90;62.90;;;;;;222033;1270;22533;-51
2023/08/19 17:58:09;;;;;;;8.20;7.60;;;28.80;62.70;;;;;;222127;1264;22632;-46
2023/08/19 18:03:11;;;;;;;8.00;7.20;;;28.80;62.80;;;;;;222088;1268;22514;-48
2023/08/19 18:08:15;;;;;;;8.70;8.00;;;28.80;63.40;;;;;;222084;1255;22643;-50
2023/08/19 18:13:18;;;;;;;9.10;8.10;;;28.80;63.20;;;;;;221646;1262;24221;-49
2023/08/19 18:18:21;;;;;;;9.40;8.40;;;28.80;63.20;;;;;;221778;1260;24737;-52
2023/08/19 18:23:24;;;;;;;9.30;8.30;;;28.80;63.20;;;;;;221760;1270;22520;-50
2023/08/19 18:28:27;;;;;;;10.40;8.90;;;28.80;63.40;;;;;;221749;1267;22520;-49
2023/08/19 18:33:30;;;;;;;9.60;8.70;;;28.80;63.60;;;;;;221744;1266;22521;-49
2023/08/19 18:38:33;;;;;;;9.00;8.30;;;28.70;63.60;;;;;;221792;1266;23121;-48
2023/08/19 18:43:37;;;;;;;9.30;8.20;;;28.70;63.70;;;;;;221805;1260;23945;-52
2023/08/19 18:48:40;;;;;;;9.60;8.70;;;28.70;63.70;;;;;;221654;1270;22521;-51
2023/08/19 18:53:42;;;;;;;9.70;8.70;;;28.70;63.80;;;;;;221891;1261;22517;-48
2023/08/19 18:58:46;;;;;;;10.80;8.00;;;28.70;63.90;;;;;;221983;1266;22533;-50
2023/08/19 19:03:50;;;;;;;9.30;8.40;;;28.70;63.90;;;;;;221970;1255;22558;-48
2023/08/19 19:08:54;;;;;;;10.70;9.70;;;28.70;64.20;;;;;;221830;1258;24270;-49
2023/08/19 19:13:58;;;;;;;10.40;9.60;;;28.70;64.30;;;;;;221767;1248;24195;-48
2023/08/19 19:19:03;;;;;;;11.20;10.10;;;28.70;64.40;;;;;;222086;1268;22536;-51
2023/08/19 19:24:07;;;;;;;10.10;9.10;;;28.60;64.70;;;;;;221993;1248;24245;-49
2023/08/19 19:29:12;;;;;;;10.40;9.40;;;28.60;64.50;;;;;;221974;1270;22794;-49
2023/08/19 19:34:16;;;;;;;11.50;10.30;;;28.60;64.50;;;;;;221980;1255;22571;-54
2023/08/19 19:39:20;;;;;;;11.30;10.20;;;28.60;64.60;;;;;;221989;1271;24192;-48
2023/08/19 19:44:25;;;;;;;11.80;10.60;;;28.60;64.80;;;;;;222066;1268;22575;-49
2023/08/19 19:49:28;;;;;;;11.50;10.40;;;28.50;65.20;;;;;;222046;1265;22532;-47
2023/08/19 19:54:33;;;;;;;12.40;11.30;;;28.50;65.30;;;;;;222043;1265;22557;-47
2023/08/19 19:59:38;;;;;;;12.00;11.00;;;28.50;65.00;;;;;;221823;1265;22533;-50
2023/08/19 20:04:41;;;;;;;12.20;11.00;;;28.50;65.40;;;;;;221937;1268;22523;-47
2023/08/19 20:09:46;;;;;;;12.10;11.00;;;28.50;65.50;;;;;;221916;1268;24183;-52
2023/08/19 20:14:52;;;;;;;11.40;10.50;;;28.50;65.20;;;;;;222046;1267;22516;-50
2023/08/19 20:19:56;;;;;;;11.00;10.20;;;28.50;64.70;;;;;;222002;1255;22784;-51
2023/08/19 20:25:01;;;;;;;11.60;10.60;;;28.50;65.10;;;;;;221776;1270;22545;-50
2023/08/19 20:30:06;;;;;;;11.50;10.40;;;28.50;65.50;;;;;;221922;1269;24388;-52
2023/08/19 20:35:09;;;;;;;13.10;11.90;;;28.50;65.20;;;;;;222023;1271;25301;-49
2023/08/19 20:40:14;;;;;;;12.30;11.20;;;28.50;65.30;;;;;;221767;1265;22628;-48
2023/08/19 20:45:18;;;;;;;12.10;10.90;;;28.50;65.60;;;;;;221868;1269;23172;-50
2023/08/19 20:50:22;;;;;;;14.10;12.40;;;28.50;65.30;;;;;;222079;1263;24214;-51
2023/08/19 20:55:26;;;;;;;12.60;11.50;;;28.40;65.30;;;;;;221858;1265;25356;-54
2023/08/19 21:00:30;;;;;;;12.70;11.50;;;28.40;65.70;;;;;;222140;1256;25410;-52
2023/08/19 21:05:39;;;;;;;15.00;12.20;;;28.30;65.70;;;;;;221937;1263;25478;-48
2023/08/19 21:10:41;;;;;;;12.60;11.40;;;28.30;65.70;;;;;;221929;1268;24266;-51
2023/08/19 21:15:50;;;;;;;11.80;10.70;;;28.30;65.70;;;;;;221857;1268;23121;-47
2023/08/19 21:20:53;;;;;;;12.30;11.10;;;28.30;65.70;;;;;;221980;1270;24495;-48
2023/08/19 21:25:55;;;;;;;13.00;11.90;;;28.30;65.70;;;;;;221998;1268;22678;-53
2023/08/19 21:30:59;;;;;;;12.00;10.90;;;28.30;65.70;;;;;;221686;1268;25368;-49
2023/08/19 21:36:02;;;;;;;13.40;11.90;;;28.30;65.70;;;;;;222144;1256;22607;-51
2023/08/19 21:41:05;;;;;;;13.60;11.90;;;28.30;65.70;;;;;;221991;1268;22642;-50
2023/08/19 21:46:08;;;;;;;12.10;11.10;;;28.30;65.80;;;;;;222035;1270;22519;-47
2023/08/19 21:51:11;;;;;;;11.20;10.20;;;28.30;65.90;;;;;;221811;1259;22571;-50
2023/08/19 21:56:14;;;;;;;13.20;11.10;;;28.30;65.80;;;;;;221919;1267;22536;-50
2023/08/19 22:01:17;;;;;;;12.40;11.30;;;28.30;65.80;;;;;;222097;1265;22601;-51
2023/08/19 22:06:20;;;;;;;11.60;10.50;;;28.30;65.80;;;;;;221854;1271;22521;-50
2023/08/19 22:11:23;;;;;;;11.90;10.70;;;28.30;65.70;;;;;;221833;1269;22517;-51
2023/08/19 22:16:26;;;;;;;12.10;11.10;;;28.20;65.70;;;;;;221649;1268;22987;-52
2023/08/19 22:21:30;;;;;;;11.60;10.60;;;28.20;65.70;;;;;;222036;1271;25636;-50
2023/08/19 22:26:34;;;;;;;11.10;10.10;;;28.20;65.60;;;;;;221780;1271;24215;-51
2023/08/19 22:31:37;;;;;;;11.50;10.40;;;28.20;65.60;;;;;;221914;1268;24398;-51
2023/08/19 22:36:39;;;;;;;11.60;10.40;;;28.20;65.50;;;;;;221711;1269;22663;-50
2023/08/19 22:41:42;;;;;;;12.60;11.30;;;28.10;66.00;;;;;;221676;1270;22640;-48
2023/08/19 22:46:45;;;;;;;13.00;11.60;;;28.10;65.30;;;;;;221718;1264;22517;-50
2023/08/19 22:51:48;;;;;;;12.00;10.70;;;28.20;65.30;;;;;;221804;1263;22652;-45
2023/08/19 22:56:51;;;;;;;12.40;10.70;;;28.20;65.30;;;;;;221811;1264;22523;-50
2023/08/19 23:01:53;;;;;;;13.00;11.90;;;28.10;65.60;;;;;;221812;1270;22541;-50
2023/08/19 23:06:56;;;;;;;14.20;12.80;;;28.10;65.20;;;;;;222048;1271;24209;-49
2023/08/19 23:12:07;;;;;;;13.10;11.80;;;28.10;65.20;;;;;;221920;1266;22527;-50
2023/08/19 23:17:12;;;;;;;13.40;12.20;;;28.10;65.60;;;;;;221687;1268;22583;-47
2023/08/19 23:22:15;;;;;;;13.20;11.90;;;28.10;65.50;;;;;;221861;1249;25462;-50
2023/08/19 23:27:17;;;;;;;12.90;11.80;;;28.10;65.20;;;;;;221831;1268;23565;-51
2023/08/19 23:32:21;;;;;;;13.40;12.20;;;28.10;65.20;;;;;;221913;1263;22764;-50
2023/08/19 23:37:24;;;;;;;13.20;12.10;;;28.00;65.10;;;;;;221774;1269;22615;-49
2023/08/19 23:42:26;;;;;;;15.10;13.80;;;28.10;65.20;;;;;;221848;1270;24037;-49
2023/08/19 23:47:29;;;;;;;14.20;12.70;;;28.00;65.10;;;;;;222005;1266;22524;-53
2023/08/19 23:52:37;;;;;;;14.30;13.00;;;28.00;65.20;;;;;;222147;1257;22629;-51
2023/08/19 23:57:41;;;;;;;14.90;13.60;;;28.00;65.40;;;;;;221877;1271;25339;-50
